Time;durP1;ratioP1;P1;durP2;ratioP2;P2;SDS_P1;SDS_P2;PMS_P1;PMS_P2;Temp;Humidity;BMP_temperature;BMP_pressure;BME280_temperature;BME280_humidity;BME280_pressure;Samples;Min_cycle;Max_cycle;Signal;HPM_P1;HPM_P2
2022/10/05 00:01:28;;;;;;;;;6.67;6.67;;;;;;;;5101941;27;45503;-67
2022/10/05 00:03:57;;;;;;;;;6.00;6.00;;;;;;;;5091612;27;45642;-66
2022/10/05 00:06:24;;;;;;;;;6.00;6.00;;;;;;;;5078809;27;45520;-67
2022/10/05 00:08:49;;;;;;;;;8.00;7.00;;;;;;;;5068961;27;45281;-67
2022/10/05 00:11:15;;;;;;;;;7.67;7.67;;;;;;;;5103272;27;45646;-67
2022/10/05 00:13:41;;;;;;;;;6.67;6.00;;;;;;;;5100471;27;45931;-68
2022/10/05 00:16:11;;;;;;;;;5.67;4.67;;;;;;;;5105465;27;45318;-68
2022/10/05 00:18:36;;;;;;;;;10.33;8.33;;;;;;;;5086508;27;45707;-71
2022/10/05 00:21:07;;;;;;;;;7.33;7.00;;;;;;;;5109567;27;45460;-68
2022/10/05 00:23:33;;;;;;;;;9.67;8.33;;;;;;;;5101001;27;46680;-67
2022/10/05 00:26:05;;;;;;;;;8.00;8.00;;;;;;;;5112640;27;45739;-68
2022/10/05 00:28:30;;;;;;;;;7.00;7.00;;;;;;;;5094464;27;45341;-66
2022/10/05 00:30:56;;;;;;;;;7.67;7.33;;;;;;;;5100841;27;45737;-68
2022/10/05 00:33:22;;;;;;;;;9.33;6.67;;;;;;;;5089038;27;46158;-67
2022/10/05 00:35:47;;;;;;;;;7.33;7.33;;;;;;;;5082217;27;45352;-68
2022/10/05 00:38:12;;;;;;;;;6.33;6.33;;;;;;;;5079049;27;45414;-68
2022/10/05 00:41:04;;;;;;;;;9.00;8.00;;;;;;;;5087817;27;45365;-67
2022/10/05 00:43:37;;;;;;;;;9.33;7.33;;;;;;;;5072934;27;45825;-67
2022/10/05 00:46:10;;;;;;;;;9.67;7.67;;;;;;;;5098149;27;45364;-67
2022/10/05 00:48:39;;;;;;;;;6.33;6.00;;;;;;;;5101498;27;45562;-66
2022/10/05 00:51:07;;;;;;;;;7.67;7.67;;;;;;;;5108666;27;45323;-68
2022/10/05 00:53:38;;;;;;;;;9.67;8.33;;;;;;;;5095794;27;45474;-68
2022/10/05 00:56:19;;;;;;;;;7.00;7.00;;;;;;;;5092377;27;45798;-67
2022/10/05 00:58:53;;;;;;;;;6.00;6.00;;;;;;;;5091692;27;46006;-68
2022/10/05 01:01:27;;;;;;;;;9.67;8.33;;;;;;;;5090497;27;46200;-68
2022/10/05 01:04:11;;;;;;;;;7.33;7.33;;;;;;;;5082614;27;45894;-66
2022/10/05 01:06:48;;;;;;;;;9.00;7.33;;;;;;;;5079914;27;45336;-67
2022/10/05 01:09:32;;;;;;;;;12.00;8.00;;;;;;;;5077497;27;45589;-65
2022/10/05 01:12:08;;;;;;;;;7.00;7.00;;;;;;;;5094264;27;45677;-66
2022/10/05 01:14:49;;;;;;;;;11.33;9.67;;;;;;;;5078020;27;47110;-66
2022/10/05 01:17:40;;;;;;;;;11.33;8.33;;;;;;;;5076336;27;45598;-67
2022/10/05 01:20:14;;;;;;;;;8.67;8.67;;;;;;;;5072954;27;45979;-67
2022/10/05 01:22:45;;;;;;;;;12.67;11.33;;;;;;;;5081439;27;45837;-67
2022/10/05 01:25:25;;;;;;;;;15.67;13.33;;;;;;;;5095241;27;45726;-68
2022/10/05 01:28:07;;;;;;;;;14.00;14.00;;;;;;;;5085113;27;45670;-67
2022/10/05 01:30:38;;;;;;;;;14.67;11.67;;;;;;;;5103411;27;45300;-67
2022/10/05 01:33:10;;;;;;;;;17.00;12.33;;;;;;;;5095980;27;45530;-66
2022/10/05 01:35:45;;;;;;;;;11.67;11.00;;;;;;;;5077673;27;46236;-67
2022/10/05 01:38:30;;;;;;;;;16.00;11.33;;;;;;;;5094841;27;45496;-66
2022/10/05 01:40:59;;;;;;;;;11.00;10.00;;;;;;;;5089360;27;45845;-66
2022/10/05 01:43:39;;;;;;;;;10.67;10.67;;;;;;;;5095783;27;45407;-66
2022/10/05 01:46:10;;;;;;;;;11.00;11.00;;;;;;;;5095566;27;46590;-67
2022/10/05 01:48:55;;;;;;;;;9.67;9.67;;;;;;;;5083534;27;45738;-66
2022/10/05 01:51:23;;;;;;;;;12.67;11.33;;;;;;;;5096664;27;45651;-67
2022/10/05 01:53:48;;;;;;;;;15.50;14.00;;;;;;;;5094783;27;45794;-66
2022/10/05 01:56:13;;;;;;;;;12.00;8.50;;;;;;;;5081151;27;47666;-67
2022/10/05 01:58:45;;;;;;;;;15.67;11.67;;;;;;;;5110852;27;45375;-67
2022/10/05 02:01:13;;;;;;;;;9.00;9.00;;;;;;;;5099938;27;45577;-67
2022/10/05 02:03:42;;;;;;;;;11.33;10.00;;;;;;;;5103236;27;46049;-67
2022/10/05 02:06:11;;;;;;;;;9.33;9.33;;;;;;;;5097961;27;47335;-67
2022/10/05 02:08:45;;;;;;;;;9.00;9.00;;;;;;;;5102254;27;45618;-67
2022/10/05 02:11:12;;;;;;;;;7.00;6.00;;;;;;;;5105274;27;45423;-67
2022/10/05 02:13:40;;;;;;;;;8.67;8.67;;;;;;;;5076648;27;45662;-69
2022/10/05 02:16:23;;;;;;;;;11.67;8.00;;;;;;;;5089266;27;46577;-68
2022/10/05 02:18:51;;;;;;;;;6.33;6.33;;;;;;;;5098355;27;45471;-67
2022/10/05 02:21:17;;;;;;;;;10.33;6.33;;;;;;;;5090980;27;45487;-67
2022/10/05 02:23:43;;;;;;;;;9.33;6.33;;;;;;;;5085769;27;45357;-67
2022/10/05 02:26:10;;;;;;;;;6.00;6.00;;;;;;;;5078350;27;47450;-65
2022/10/05 02:28:38;;;;;;;;;7.00;7.00;;;;;;;;5090768;27;45309;-67
2022/10/05 02:31:03;;;;;;;;;9.00;6.00;;;;;;;;5102374;27;45499;-65
2022/10/05 02:33:30;;;;;;;;;8.33;6.00;;;;;;;;5091732;27;45785;-66
2022/10/05 02:36:11;;;;;;;;;8.33;6.00;;;;;;;;5093756;27;45543;-67
2022/10/05 02:38:54;;;;;;;;;5.00;5.00;;;;;;;;5106564;27;45297;-66
2022/10/05 02:41:52;;;;;;;;;9.00;5.33;;;;;;;;5097177;27;45608;-67
2022/10/05 02:44:17;;;;;;;;;4.00;4.00;;;;;;;;5035366;27;45451;-69
2022/10/05 02:47:01;;;;;;;;;5.33;5.33;;;;;;;;5072848;27;47409;-71
2022/10/05 02:49:30;;;;;;;;;6.00;5.67;;;;;;;;5072251;27;45263;-70
2022/10/05 02:51:55;;;;;;;;;4.00;3.67;;;;;;;;5083743;27;45472;-70
2022/10/05 02:54:26;;;;;;;;;5.33;4.33;;;;;;;;5088008;27;45434;-70
2022/10/05 02:57:04;;;;;;;;;3.67;3.67;;;;;;;;5085998;27;45487;-70
2022/10/05 02:59:45;;;;;;;;;4.33;4.33;;;;;;;;5091644;27;45846;-70
2022/10/05 03:02:16;;;;;;;;;6.00;4.33;;;;;;;;5080935;27;45620;-69
2022/10/05 03:04:46;;;;;;;;;3.33;3.33;;;;;;;;5085737;27;46032;-70
2022/10/05 03:07:16;;;;;;;;;6.00;4.33;;;;;;;;5094855;27;46054;-70
2022/10/05 03:09:55;;;;;;;;;4.00;3.00;;;;;;;;5078937;27;45823;-70
2022/10/05 03:12:21;;;;;;;;;4.67;4.67;;;;;;;;5093249;27;45469;-71
2022/10/05 03:15:01;;;;;;;;;5.00;5.00;;;;;;;;5100038;27;45726;-70
2022/10/05 03:17:29;;;;;;;;;7.00;5.00;;;;;;;;5085975;27;46033;-69
2022/10/05 03:20:01;;;;;;;;;5.33;4.00;;;;;;;;5086171;27;45383;-70
2022/10/05 03:22:38;;;;;;;;;4.00;4.00;;;;;;;;5086891;27;45798;-69
2022/10/05 03:25:21;;;;;;;;;2.67;2.67;;;;;;;;5097500;27;45759;-70
2022/10/05 03:27:58;;;;;;;;;4.00;3.00;;;;;;;;5092775;27;45885;-69
2022/10/05 03:30:26;;;;;;;;;3.33;3.33;;;;;;;;5077536;27;45927;-69
2022/10/05 03:32:54;;;;;;;;;3.67;3.67;;;;;;;;5090953;27;45710;-69
2022/10/05 03:35:27;;;;;;;;;7.67;3.67;;;;;;;;5097211;27;45437;-69
2022/10/05 03:37:58;;;;;;;;;4.00;4.00;;;;;;;;5094752;27;46501;-70
2022/10/05 03:40:26;;;;;;;;;5.00;5.00;;;;;;;;5101654;27;45696;-70
2022/10/05 03:42:52;;;;;;;;;4.00;4.00;;;;;;;;5098058;27;45551;-70
2022/10/05 03:45:17;;;;;;;;;4.00;2.67;;;;;;;;5093397;27;45320;-70
2022/10/05 03:47:50;;;;;;;;;5.00;4.00;;;;;;;;5076591;27;47257;-69
2022/10/05 03:50:42;;;;;;;;;4.33;4.33;;;;;;;;5074127;27;45347;-70
2022/10/05 03:55:40;;;;;;;;;6.00;4.67;;;;;;;;5074343;27;47073;-67
2022/10/05 03:58:13;;;;;;;;;4.00;4.00;;;;;;;;5075540;27;45610;-66
2022/10/05 04:00:39;;;;;;;;;5.33;4.33;;;;;;;;5063197;28;45396;-67
2022/10/05 04:03:15;;;;;;;;;5.00;4.00;;;;;;;;5076223;27;45434;-66
2022/10/05 04:05:46;;;;;;;;;7.00;5.00;;;;;;;;5076695;27;45758;-70
2022/10/05 04:08:17;;;;;;;;;6.67;6.67;;;;;;;;5076034;27;45488;-71
2022/10/05 04:10:50;;;;;;;;;6.00;4.67;;;;;;;;5075671;27;45341;-70
2022/10/05 04:13:26;;;;;;;;;4.00;4.00;;;;;;;;5068167;27;45744;-70
2022/10/05 04:15:51;;;;;;;;;7.33;7.33;;;;;;;;5075693;27;45491;-71
2022/10/05 04:18:29;;;;;;;;;4.67;4.00;;;;;;;;5075616;27;46447;-71
2022/10/05 04:20:59;;;;;;;;;7.67;5.00;;;;;;;;5070612;27;45776;-72
2022/10/05 04:23:32;;;;;;;;;4.33;4.33;;;;;;;;5075772;27;45412;-70
2022/10/05 04:26:07;;;;;;;;;6.67;6.67;;;;;;;;5051228;27;45810;-71
2022/10/05 04:29:02;;;;;;;;;5.33;5.33;;;;;;;;5071340;27;47135;-70
2022/10/05 04:31:27;;;;;;;;;4.00;4.00;;;;;;;;5051382;27;45405;-72
2022/10/05 04:33:58;;;;;;;;;4.00;4.00;;;;;;;;5074915;27;45337;-72
2022/10/05 04:36:30;;;;;;;;;5.00;5.00;;;;;;;;5074899;27;45743;-76
2022/10/05 04:39:01;;;;;;;;;5.00;4.33;;;;;;;;5074018;27;45821;-70
2022/10/05 04:41:36;;;;;;;;;4.00;4.00;;;;;;;;5067981;27;45487;-70
2022/10/05 04:44:04;;;;;;;;;9.67;5.00;;;;;;;;5066966;27;45435;-70
2022/10/05 04:46:52;;;;;;;;;6.00;5.67;;;;;;;;5074907;27;46417;-72
2022/10/05 04:49:17;;;;;;;;;6.33;5.00;;;;;;;;5069657;27;45354;-74
2022/10/05 04:52:01;;;;;;;;;2.00;2.00;;;;;;;;5064765;27;45799;-72
2022/10/05 04:54:44;;;;;;;;;5.00;5.00;;;;;;;;5061039;27;45932;-72
2022/10/05 04:57:18;;;;;;;;;4.67;4.67;;;;;;;;5087293;27;46137;-72
2022/10/05 05:00:07;;;;;;;;;5.00;5.00;;;;;;;;5073956;27;46383;-69
2022/10/05 05:02:35;;;;;;;;;6.33;5.67;;;;;;;;5070455;27;45818;-72
2022/10/05 05:05:19;;;;;;;;;4.00;4.00;;;;;;;;5065673;27;45408;-71
2022/10/05 05:08:03;;;;;;;;;5.67;4.00;;;;;;;;5074619;27;45486;-75
2022/10/05 05:10:28;;;;;;;;;7.67;4.00;;;;;;;;5073375;28;45454;-70
2022/10/05 05:13:03;;;;;;;;;3.00;3.00;;;;;;;;5072604;27;45702;-71
2022/10/05 05:15:31;;;;;;;;;5.00;5.00;;;;;;;;5070321;27;45704;-71
2022/10/05 05:17:56;;;;;;;;;8.67;5.00;;;;;;;;5074295;27;45363;-72
2022/10/05 05:20:25;;;;;;;;;3.00;3.00;;;;;;;;5078240;27;46466;-71
2022/10/05 05:23:11;;;;;;;;;7.50;5.00;;;;;;;;5059932;28;45763;-71
2022/10/05 05:26:02;;;;;;;;;7.00;5.67;;;;;;;;5058903;28;45776;-68
2022/10/05 05:28:28;;;;;;;;;5.00;5.00;;;;;;;;5072825;27;45732;-68
2022/10/05 05:31:04;;;;;;;;;3.00;3.00;;;;;;;;5077012;27;46097;-69
2022/10/05 05:33:48;;;;;;;;;7.33;4.33;;;;;;;;5053508;28;45707;-70
2022/10/05 05:36:19;;;;;;;;;5.00;5.00;;;;;;;;5078409;27;45662;-71
2022/10/05 05:38:53;;;;;;;;;5.67;5.67;;;;;;;;5066575;27;45751;-71
2022/10/05 05:41:27;;;;;;;;;4.33;4.00;;;;;;;;5079977;27;45522;-72
2022/10/05 05:43:55;;;;;;;;;5.67;4.67;;;;;;;;5081761;27;45797;-68
2022/10/05 05:46:34;;;;;;;;;4.67;3.67;;;;;;;;5058732;28;46037;-69
2022/10/05 05:49:02;;;;;;;;;6.00;4.33;;;;;;;;5072476;27;45662;-68
2022/10/05 05:51:33;;;;;;;;;5.00;5.00;;;;;;;;5077932;27;46388;-71
2022/10/05 05:54:10;;;;;;;;;9.00;5.00;;;;;;;;5062242;27;45452;-71
2022/10/05 05:56:41;;;;;;;;;5.33;4.67;;;;;;;;5073011;27;45698;-70
2022/10/05 05:59:13;;;;;;;;;7.00;5.67;;;;;;;;5069797;27;45360;-71
2022/10/05 06:01:42;;;;;;;;;5.00;4.00;;;;;;;;5064538;27;46233;-71
2022/10/05 06:04:16;;;;;;;;;7.67;7.00;;;;;;;;5047157;28;45838;-73
2022/10/05 06:06:43;;;;;;;;;8.67;6.33;;;;;;;;5066173;27;45970;-72
2022/10/05 06:09:27;;;;;;;;;8.33;7.67;;;;;;;;5072336;27;45366;-70
2022/10/05 06:12:15;;;;;;;;;7.00;7.00;;;;;;;;5065648;27;45494;-71
2022/10/05 06:14:45;;;;;;;;;7.67;7.67;;;;;;;;5063097;27;45878;-72
2022/10/05 06:17:27;;;;;;;;;7.00;7.00;;;;;;;;5067373;27;45753;-73
2022/10/05 06:19:56;;;;;;;;;11.00;8.67;;;;;;;;5067064;27;45658;-72
2022/10/05 06:22:44;;;;;;;;;8.00;5.33;;;;;;;;5064071;27;46633;-74
2022/10/05 06:25:13;;;;;;;;;8.67;7.00;;;;;;;;5063792;27;45789;-71
2022/10/05 06:27:39;;;;;;;;;6.67;6.67;;;;;;;;5059861;27;45449;-71
2022/10/05 06:30:10;;;;;;;;;4.00;4.00;;;;;;;;5063079;27;45698;-72
2022/10/05 06:32:47;;;;;;;;;5.00;4.67;;;;;;;;5060601;27;46188;-70
2022/10/05 06:35:13;;;;;;;;;5.00;4.67;;;;;;;;5069009;27;45483;-74
2022/10/05 06:37:55;;;;;;;;;6.67;5.00;;;;;;;;5068884;27;45424;-71
2022/10/05 06:40:33;;;;;;;;;5.00;5.00;;;;;;;;5064331;27;45556;-72
2022/10/05 06:42:58;;;;;;;;;6.00;6.00;;;;;;;;5062355;27;46370;-73
2022/10/05 06:45:44;;;;;;;;;3.33;3.33;;;;;;;;5062797;27;45401;-75
2022/10/05 06:48:12;;;;;;;;;6.00;6.00;;;;;;;;5072435;27;45483;-70
2022/10/05 06:50:41;;;;;;;;;5.00;5.00;;;;;;;;5067636;27;45397;-74
2022/10/05 06:53:25;;;;;;;;;7.33;5.67;;;;;;;;5064764;27;45503;-72
2022/10/05 06:56:09;;;;;;;;;4.00;4.00;;;;;;;;5064127;27;46035;-71
2022/10/05 06:58:49;;;;;;;;;6.50;5.00;;;;;;;;5074363;27;45429;-72
2022/10/05 07:01:27;;;;;;;;;7.00;7.00;;;;;;;;5039422;28;46412;-72
2022/10/05 07:03:52;;;;;;;;;7.00;6.00;;;;;;;;5044179;27;46382;-73
2022/10/05 07:06:22;;;;;;;;;7.50;7.50;;;;;;;;5066766;27;45915;-73
2022/10/05 07:08:53;;;;;;;;;7.67;6.00;;;;;;;;5044130;28;45697;-69
2022/10/05 07:11:24;;;;;;;;;6.00;6.00;;;;;;;;5066340;27;45355;-72
2022/10/05 07:14:02;;;;;;;;;7.33;7.33;;;;;;;;5054497;27;45654;-72
2022/10/05 07:16:44;;;;;;;;;7.33;6.33;;;;;;;;5058449;27;45955;-70
2022/10/05 07:19:28;;;;;;;;;8.67;6.00;;;;;;;;5049157;28;45446;-73
2022/10/05 07:21:56;;;;;;;;;8.00;5.00;;;;;;;;5057417;27;45436;-75
2022/10/05 07:24:32;;;;;;;;;5.00;5.00;;;;;;;;5052486;27;45739;-72
2022/10/05 07:26:57;;;;;;;;;7.67;7.67;;;;;;;;5053458;27;45419;-73
2022/10/05 07:29:27;;;;;;;;;10.33;10.33;;;;;;;;5055064;27;45227;-70
2022/10/05 07:32:01;;;;;;;;;4.00;4.00;;;;;;;;5068121;27;45693;-75
2022/10/05 07:34:29;;;;;;;;;4.33;4.33;;;;;;;;5072904;27;45806;-73
2022/10/05 07:39:50;;;;;;;;;4.67;3.67;;;;;;;;5073549;28;45688;-71
2022/10/05 07:42:17;;;;;;;;;6.00;4.67;;;;;;;;5055819;28;45877;-73
2022/10/05 07:44:51;;;;;;;;;6.00;5.00;;;;;;;;5069088;27;46112;-72
2022/10/05 07:47:23;;;;;;;;;3.00;3.00;;;;;;;;5064639;27;46413;-74
2022/10/05 07:49:48;;;;;;;;;4.67;4.67;;;;;;;;5071753;28;45362;-73
2022/10/05 07:52:25;;;;;;;;;4.67;3.67;;;;;;;;5054306;28;45883;-72
2022/10/05 07:55:02;;;;;;;;;4.67;4.67;;;;;;;;5041367;28;47904;-72
2022/10/05 07:57:49;;;;;;;;;5.67;5.67;;;;;;;;5074017;27;45404;-70
2022/10/05 08:00:19;;;;;;;;;5.00;3.67;;;;;;;;5064394;27;45274;-72
2022/10/05 08:02:58;;;;;;;;;3.00;3.00;;;;;;;;5073142;27;45749;-70
2022/10/05 08:05:40;;;;;;;;;4.33;3.33;;;;;;;;5073052;27;45524;-74
2022/10/05 08:08:11;;;;;;;;;6.00;5.00;;;;;;;;5072907;27;45704;-71
2022/10/05 08:10:42;;;;;;;;;4.33;4.33;;;;;;;;5072755;27;45441;-69
2022/10/05 08:13:13;;;;;;;;;3.00;3.00;;;;;;;;5054524;28;45786;-72
2022/10/05 08:15:41;;;;;;;;;3.75;3.75;;;;;;;;5054334;28;46849;-69
2022/10/05 08:18:18;;;;;;;;;7.00;5.00;;;;;;;;5054051;28;45565;-71
2022/10/05 08:20:43;;;;;;;;;5.25;3.25;;;;;;;;5073356;27;45812;-71
2022/10/05 08:23:32;;;;;;;;;4.75;3.50;;;;;;;;5072373;27;45733;-71
2022/10/05 08:25:58;;;;;;;;;3.50;2.25;;;;;;;;5054930;28;46424;-70
2022/10/05 08:28:32;;;;;;;;;4.50;4.50;;;;;;;;5054456;28;45319;-72
2022/10/05 08:31:01;;;;;;;;;3.00;3.00;;;;;;;;5075687;27;45749;-70
2022/10/05 08:33:30;;;;;;;;;3.50;2.75;;;;;;;;5073610;27;45275;-75
2022/10/05 08:36:11;;;;;;;;;4.25;4.00;;;;;;;;5078700;22;45550;-79
2022/10/05 08:38:37;;;;;;;;;3.00;2.00;;;;;;;;5040068;28;45526;-79
2022/10/05 08:41:03;;;;;;;;;3.00;3.00;;;;;;;;5062413;28;45354;-86
2022/10/05 08:43:47;;;;;;;;;4.00;4.00;;;;;;;;5060634;28;45446;-78
2022/10/05 08:46:31;;;;;;;;;4.50;4.50;;;;;;;;5054171;28;45643;-79
2022/10/05 08:48:59;;;;;;;;;2.50;2.50;;;;;;;;5018766;28;45345;-78
2022/10/05 08:51:43;;;;;;;;;8.50;6.00;;;;;;;;5041251;28;46089;-82
2022/10/05 08:54:28;;;;;;;;;5.50;3.00;;;;;;;;5043241;28;45871;-83
2022/10/05 08:57:05;;;;;;;;;6.75;3.50;;;;;;;;5043212;28;45478;-79
2022/10/05 08:59:34;;;;;;;;;6.00;3.50;;;;;;;;5053141;28;46337;-79
2022/10/05 09:02:02;;;;;;;;;3.00;3.00;;;;;;;;5053898;28;45905;-79
2022/10/05 09:04:41;;;;;;;;;4.00;3.25;;;;;;;;5053384;28;45772;-80
2022/10/05 09:07:08;;;;;;;;;5.00;3.25;;;;;;;;5039883;28;46558;-81
2022/10/05 09:09:47;;;;;;;;;4.00;4.00;;;;;;;;5037082;28;45856;-81
2022/10/05 09:12:31;;;;;;;;;5.00;4.00;;;;;;;;5055616;28;45296;-81
2022/10/05 09:15:33;;;;;;;;;6.25;4.00;;;;;;;;5055786;28;47430;-82
2022/10/05 09:18:10;;;;;;;;;5.50;4.50;;;;;;;;5065352;28;47596;-81
2022/10/05 09:20:39;;;;;;;;;3.75;3.50;;;;;;;;5056917;28;45916;-82
2022/10/05 09:23:07;;;;;;;;;4.75;4.75;;;;;;;;5052104;28;45336;-83
2022/10/05 09:25:35;;;;;;;;;6.25;4.00;;;;;;;;5077111;28;45864;-81
2022/10/05 09:28:07;;;;;;;;;5.00;3.25;;;;;;;;5069111;28;45458;-81
2022/10/05 09:30:38;;;;;;;;;4.00;4.00;;;;;;;;5060366;28;45441;-78
2022/10/05 09:33:24;;;;;;;;;4.50;4.00;;;;;;;;5072292;27;45402;-81
2022/10/05 09:36:08;;;;;;;;;4.00;4.00;;;;;;;;5078591;27;45967;-80
2022/10/05 09:38:37;;;;;;;;;5.00;5.00;;;;;;;;5087219;27;45585;-82
2022/10/05 09:41:05;;;;;;;;;4.00;4.00;;;;;;;;5095656;27;45784;-82
2022/10/05 09:43:56;;;;;;;;;3.50;3.50;;;;;;;;5090421;27;45413;-80
2022/10/05 09:46:28;;;;;;;;;4.00;4.00;;;;;;;;5086104;27;45435;-79
2022/10/05 09:49:12;;;;;;;;;5.50;4.75;;;;;;;;5093909;27;45391;-80
2022/10/05 09:52:04;;;;;;;;;4.00;4.00;;;;;;;;5087103;27;45394;-83
2022/10/05 09:54:29;;;;;;;;;2.00;2.00;;;;;;;;5093485;27;45421;-82
2022/10/05 09:56:55;;;;;;;;;3.00;3.00;;;;;;;;5095595;27;45561;-83
2022/10/05 09:59:35;;;;;;;;;3.25;2.75;;;;;;;;5074015;27;47101;-81
2022/10/05 10:02:15;;;;;;;;;1.50;1.50;;;;;;;;5075614;27;45800;-82
2022/10/05 10:05:18;;;;;;;;;5.00;3.00;;;;;;;;5089572;27;45678;-80
2022/10/05 10:08:03;;;;;;;;;3.00;3.00;;;;;;;;5022673;28;46593;-81
2022/10/05 10:10:35;;;;;;;;;2.50;2.50;;;;;;;;5072301;27;46388;-81
2022/10/05 10:13:27;;;;;;;;;3.50;3.50;;;;;;;;5094418;27;45493;-81
2022/10/05 10:16:02;;;;;;;;;4.25;4.25;;;;;;;;5074947;27;45466;-81
2022/10/05 10:18:42;;;;;;;;;3.25;2.50;;;;;;;;5069518;27;47177;-81
2022/10/05 10:21:17;;;;;;;;;4.00;4.00;;;;;;;;5085139;27;46008;-82
2022/10/05 10:23:58;;;;;;;;;3.50;3.50;;;;;;;;5074178;27;45423;-81
2022/10/05 10:26:46;;;;;;;;;5.00;5.00;;;;;;;;5090518;27;45422;-80
2022/10/05 10:29:23;;;;;;;;;4.00;4.00;;;;;;;;5076632;27;45522;-80
2022/10/05 10:31:55;;;;;;;;;3.50;3.50;;;;;;;;5086770;27;45842;-78
2022/10/05 10:34:33;;;;;;;;;2.25;2.25;;;;;;;;5087036;27;45877;-81
2022/10/05 10:37:32;;;;;;;;;1.75;1.75;;;;;;;;5093090;27;45459;-80
2022/10/05 10:40:19;;;;;;;;;2.50;2.50;;;;;;;;5092786;27;45609;-81
2022/10/05 10:43:03;;;;;;;;;2.50;2.50;;;;;;;;5074548;27;46423;-79
2022/10/05 10:45:44;;;;;;;;;4.75;2.75;;;;;;;;5086003;27;45851;-81
2022/10/05 10:48:30;;;;;;;;;1.50;1.00;;;;;;;;5083886;27;45893;-81
2022/10/05 10:51:14;;;;;;;;;3.00;3.00;;;;;;;;5083046;27;45580;-80
2022/10/05 10:53:56;;;;;;;;;1.25;1.25;;;;;;;;5063098;27;45393;-78
2022/10/05 10:56:27;;;;;;;;;3.00;3.00;;;;;;;;5073372;27;45924;-82
2022/10/05 10:58:53;;;;;;;;;3.00;3.00;;;;;;;;5066778;27;45514;-81
2022/10/05 11:01:24;;;;;;;;;1.75;1.75;;;;;;;;5079625;27;45633;-78
2022/10/05 11:04:16;;;;;;;;;2.25;2.00;;;;;;;;5083032;27;46193;-81
2022/10/05 11:06:45;;;;;;;;;2.00;2.00;;;;;;;;5067379;27;45787;-79
2022/10/05 11:09:19;;;;;;;;;3.00;2.00;;;;;;;;5082862;27;45391;-80
2022/10/05 11:12:32;;;;;;;;;1.50;1.50;;;;;;;;5081040;27;46089;-80
2022/10/05 11:15:07;;;;;;;;;5.00;2.00;;;;;;;;5043142;28;46081;-79
2022/10/05 11:17:51;;;;;;;;;3.75;2.50;;;;;;;;5037494;28;46009;-82
2022/10/05 11:20:26;;;;;;;;;1.75;1.75;;;;;;;;5068442;27;45737;-80
2022/10/05 11:23:03;;;;;;;;;2.00;2.00;;;;;;;;5094911;27;45540;-80
2022/10/05 11:26:01;;;;;;;;;3.50;2.00;;;;;;;;5088309;27;45607;-82
2022/10/05 11:28:26;;;;;;;;;1.75;1.50;;;;;;;;5063491;27;45968;-79
2022/10/05 11:31:04;;;;;;;;;1.50;1.00;;;;;;;;5084336;27;45323;-81
2022/10/05 11:33:48;;;;;;;;;1.00;1.00;;;;;;;;5091552;27;45404;-77
2022/10/05 11:36:32;;;;;;;;;2.50;2.25;;;;;;;;5086518;27;46623;-80
2022/10/05 11:39:03;;;;;;;;;3.75;3.00;;;;;;;;5094028;27;45670;-83
2022/10/05 11:41:47;;;;;;;;;3.00;2.00;;;;;;;;5074703;27;45954;-86
2022/10/05 11:44:18;;;;;;;;;3.00;3.00;;;;;;;;5086793;27;45631;-82
2022/10/05 11:47:02;;;;;;;;;2.00;2.00;;;;;;;;5079999;27;45583;-80
2022/10/05 11:49:35;;;;;;;;;3.00;3.00;;;;;;;;5074691;27;45881;-83
2022/10/05 11:52:04;;;;;;;;;3.00;2.00;;;;;;;;5074801;27;45523;-80
2022/10/05 11:54:36;;;;;;;;;2.25;2.25;;;;;;;;5092065;27;45423;-82
2022/10/05 11:57:11;;;;;;;;;1.00;1.00;;;;;;;;5096315;27;45384;-84
2022/10/05 11:59:48;;;;;;;;;3.00;2.25;;;;;;;;5082468;27;45355;-81
2022/10/05 12:02:30;;;;;;;;;3.50;3.00;;;;;;;;5080577;27;45454;-79
2022/10/05 12:05:04;;;;;;;;;1.00;0.00;;;;;;;;5085907;27;45816;-82
2022/10/05 12:07:39;;;;;;;;;4.25;4.25;;;;;;;;5073163;27;48061;-82
2022/10/05 12:10:24;;;;;;;;;2.00;2.00;;;;;;;;5081586;27;45860;-80
2022/10/05 12:12:49;;;;;;;;;1.00;1.00;;;;;;;;5075123;27;45795;-82
2022/10/05 12:15:38;;;;;;;;;3.50;2.00;;;;;;;;5086013;27;45879;-79
2022/10/05 12:18:13;;;;;;;;;2.75;1.50;;;;;;;;5085578;27;46076;-80
2022/10/05 12:20:45;;;;;;;;;2.00;2.00;;;;;;;;5086884;27;45789;-81
2022/10/05 12:23:16;;;;;;;;;1.25;1.25;;;;;;;;5074613;27;45695;-78
2022/10/05 12:25:47;;;;;;;;;3.75;2.00;;;;;;;;5094123;27;45677;-81
2022/10/05 12:28:17;;;;;;;;;3.25;2.50;;;;;;;;5091357;27;46040;-80
2022/10/05 12:31:01;;;;;;;;;3.75;3.00;;;;;;;;5084154;27;45691;-81
2022/10/05 12:33:33;;;;;;;;;3.75;3.75;;;;;;;;5086880;27;45559;-79
2022/10/05 12:36:10;;;;;;;;;4.50;2.25;;;;;;;;5090647;27;45686;-80
2022/10/05 12:38:43;;;;;;;;;1.00;1.00;;;;;;;;5092202;27;46005;-80
2022/10/05 12:41:09;;;;;;;;;0.50;0.00;;;;;;;;5094514;27;45601;-81
2022/10/05 12:43:53;;;;;;;;;4.00;2.75;;;;;;;;5095826;27;45390;-81
2022/10/05 12:46:24;;;;;;;;;3.50;1.75;;;;;;;;5075794;27;47167;-79
2022/10/05 12:49:10;;;;;;;;;4.00;3.50;;;;;;;;5092278;27;46218;-81
2022/10/05 12:51:44;;;;;;;;;2.00;2.00;;;;;;;;5062578;27;46351;-82
2022/10/05 12:54:15;;;;;;;;;3.00;3.00;;;;;;;;5077762;27;45800;-79
2022/10/05 12:56:43;;;;;;;;;3.00;3.00;;;;;;;;5093847;27;45992;-80
2022/10/05 12:59:22;;;;;;;;;4.00;4.00;;;;;;;;5092802;27;46402;-78
2022/10/05 13:01:52;;;;;;;;;1.00;1.00;;;;;;;;5077410;27;45430;-82
2022/10/05 13:04:27;;;;;;;;;3.00;3.00;;;;;;;;5092001;27;45664;-79
2022/10/05 13:07:02;;;;;;;;;3.00;3.00;;;;;;;;5064937;28;46086;-78
2022/10/05 13:09:34;;;;;;;;;2.50;2.50;;;;;;;;5094891;27;47163;-79
2022/10/05 13:12:02;;;;;;;;;2.50;2.50;;;;;;;;5073043;27;45891;-79
2022/10/05 13:14:47;;;;;;;;;2.50;2.00;;;;;;;;5072639;28;45567;-79
2022/10/05 13:17:12;;;;;;;;;3.00;3.00;;;;;;;;5077681;27;45419;-80
2022/10/05 13:19:43;;;;;;;;;3.00;3.00;;;;;;;;5069682;27;46795;-80
2022/10/05 13:22:19;;;;;;;;;3.75;3.75;;;;;;;;5093212;27;45748;-80
2022/10/05 13:24:44;;;;;;;;;3.75;3.00;;;;;;;;5082269;27;45745;-80
2022/10/05 13:27:17;;;;;;;;;8.25;4.00;;;;;;;;5094430;27;45407;-80
2022/10/05 13:30:04;;;;;;;;;3.00;2.50;;;;;;;;5082782;27;45450;-79
2022/10/05 13:33:05;;;;;;;;;3.00;3.00;;;;;;;;5078443;27;45780;-79
2022/10/05 13:35:47;;;;;;;;;2.00;2.00;;;;;;;;5025090;28;45986;-79
2022/10/05 13:38:32;;;;;;;;;5.00;3.00;;;;;;;;5077123;27;45824;-79
2022/10/05 13:41:10;;;;;;;;;2.75;2.25;;;;;;;;5065040;28;47000;-79
2022/10/05 13:43:43;;;;;;;;;4.00;4.00;;;;;;;;5076345;27;45872;-80
2022/10/05 13:46:15;;;;;;;;;4.75;3.75;;;;;;;;5078664;27;45523;-82
2022/10/05 13:48:59;;;;;;;;;3.25;2.75;;;;;;;;5063597;28;46415;-80
2022/10/05 13:51:45;;;;;;;;;4.00;4.00;;;;;;;;5076211;27;47044;-81
2022/10/05 13:54:17;;;;;;;;;3.25;3.25;;;;;;;;5079043;27;45517;-81
2022/10/05 13:56:44;;;;;;;;;2.75;2.75;;;;;;;;5069961;27;45749;-79
2022/10/05 13:59:20;;;;;;;;;5.00;4.00;;;;;;;;5085835;27;45737;-79
2022/10/05 14:01:48;;;;;;;;;2.75;2.75;;;;;;;;5090965;27;45668;-80
2022/10/05 14:04:23;;;;;;;;;1.75;1.25;;;;;;;;5072738;27;45889;-79
2022/10/05 14:06:49;;;;;;;;;4.00;3.75;;;;;;;;5070736;27;45873;-79
2022/10/05 14:09:24;;;;;;;;;4.75;4.00;;;;;;;;5093792;27;45443;-81
2022/10/05 14:11:52;;;;;;;;;3.00;3.00;;;;;;;;5075897;27;46834;-78
2022/10/05 14:14:20;;;;;;;;;3.00;3.00;;;;;;;;5083922;27;45769;-79
2022/10/05 14:16:49;;;;;;;;;6.50;4.00;;;;;;;;5072973;27;45651;-81
2022/10/05 14:19:17;;;;;;;;;4.25;3.50;;;;;;;;5073936;27;45954;-80
2022/10/05 14:21:57;;;;;;;;;8.75;4.50;;;;;;;;5083990;27;46058;-80
2022/10/05 14:24:28;;;;;;;;;3.75;3.75;;;;;;;;5092890;27;45754;-79
2022/10/05 14:26:54;;;;;;;;;3.00;3.00;;;;;;;;5090791;27;45812;-77
2022/10/05 14:29:34;;;;;;;;;5.00;5.00;;;;;;;;5084938;27;45951;-79
2022/10/05 14:32:14;;;;;;;;;4.50;3.50;;;;;;;;5083412;27;45871;-78
2022/10/05 14:34:58;;;;;;;;;3.00;3.00;;;;;;;;5073105;27;45437;-80
2022/10/05 14:37:30;;;;;;;;;4.75;4.00;;;;;;;;5074094;27;46085;-81
2022/10/05 14:39:57;;;;;;;;;3.50;3.50;;;;;;;;5087900;27;45915;-82
2022/10/05 14:42:25;;;;;;;;;4.00;4.00;;;;;;;;5081881;27;45417;-82
2022/10/05 14:44:59;;;;;;;;;6.50;3.50;;;;;;;;5063004;27;45720;-77
2022/10/05 14:47:29;;;;;;;;;4.00;3.00;;;;;;;;5082006;27;45886;-79
2022/10/05 14:50:16;;;;;;;;;3.75;3.75;;;;;;;;5070224;27;45873;-80
2022/10/05 14:53:02;;;;;;;;;5.25;3.75;;;;;;;;5072035;27;45383;-80
2022/10/05 14:55:33;;;;;;;;;4.25;4.25;;;;;;;;5072850;27;44842;-80
2022/10/05 14:58:02;;;;;;;;;6.25;5.00;;;;;;;;5081408;27;45856;-80
2022/10/05 15:00:31;;;;;;;;;6.50;5.25;;;;;;;;5082912;27;45649;-80
2022/10/05 15:02:56;;;;;;;;;5.00;3.75;;;;;;;;5063606;27;45980;-81
2022/10/05 15:05:33;;;;;;;;;5.00;5.00;;;;;;;;5082882;27;46980;-80
2022/10/05 15:08:26;;;;;;;;;5.00;4.00;;;;;;;;5087863;27;45882;-82
2022/10/05 15:11:05;;;;;;;;;5.50;4.00;;;;;;;;5073968;27;45520;-83
2022/10/05 15:13:35;;;;;;;;;6.00;3.50;;;;;;;;5076314;27;47092;-84
2022/10/05 15:16:09;;;;;;;;;6.75;5.00;;;;;;;;5070162;27;46654;-82
2022/10/05 15:18:41;;;;;;;;;2.00;1.00;;;;;;;;5081917;27;45581;-83
2022/10/05 15:21:25;;;;;;;;;6.00;5.00;;;;;;;;5080510;27;47042;-84
2022/10/05 15:23:54;;;;;;;;;4.50;4.50;;;;;;;;5072545;27;45870;-85
2022/10/05 15:26:38;;;;;;;;;4.00;4.00;;;;;;;;5076578;27;45408;-81
2022/10/05 15:29:06;;;;;;;;;6.50;6.00;;;;;;;;5081123;27;45452;-87
2022/10/05 15:31:52;;;;;;;;;6.00;4.00;;;;;;;;5095549;27;45856;-85